createdAt,value
2018-07-27T00:00:50.845Z,96825.91
2018-07-27T00:02:31.536Z,96830.42
2018-07-27T00:04:06.676Z,96825.16
2018-07-27T00:05:44.442Z,96819.11
2018-07-27T00:07:20.649Z,96819.01
2018-07-27T00:08:57.501Z,96825.58
2018-07-27T00:10:33.792Z,96824.57
2018-07-27T00:12:09.544Z,96831.42
2018-07-27T00:13:45.243Z,96825.08
2018-07-27T00:15:23.449Z,96817.03
2018-07-27T00:17:00.190Z,96818.41
2018-07-27T00:18:36.402Z,96815.13
2018-07-27T00:20:13.826Z,96821.45
2018-07-27T00:21:51.336Z,96816.90
2018-07-27T00:23:26.765Z,96818.67
2018-07-27T00:25:04.466Z,96816.40
2018-07-27T00:26:39.794Z,96814.73
2018-07-27T00:28:16.369Z,96811.32
2018-07-27T00:29:51.607Z,96814.98
2018-07-27T00:31:27.367Z,96808.28
2018-07-27T00:33:11.399Z,96806.86
2018-07-27T00:34:53.698Z,96809.13
2018-07-27T00:36:35.290Z,96807.23
2018-07-27T00:38:13.767Z,96811.40
2018-07-27T00:39:49.670Z,96812.53
2018-07-27T00:41:30.726Z,96812.23
2018-07-27T00:43:06.507Z,96809.84
2018-07-27T00:44:44.071Z,96816.82
2018-07-27T00:46:19.576Z,96812.91
2018-07-27T00:47:59.613Z,96816.31
2018-07-27T00:49:36.040Z,96813.42
2018-07-27T00:51:13.195Z,96809.13
2018-07-27T00:52:51.180Z,96809.13
2018-07-27T00:54:30.551Z,96811.44
2018-07-27T00:56:05.910Z,96808.41
2018-07-27T00:57:42.642Z,96805.97
2018-07-27T00:59:18.884Z,96803.45
2018-07-27T01:00:55.814Z,96800.33
2018-07-27T01:02:34.695Z,96802.98
2018-07-27T01:04:19.593Z,96802.09
2018-07-27T01:05:59.357Z,96796.42
2018-07-27T01:07:34.623Z,96797.94
2018-07-27T01:09:12.193Z,96794.28
2018-07-27T01:10:49.939Z,96793.02
2018-07-27T01:12:25.223Z,96789.36
2018-07-27T01:14:03.648Z,96792.13
2018-07-27T01:15:39.573Z,96791.63
2018-07-27T01:17:16.098Z,96784.69
2018-07-27T01:18:51.702Z,96783.17
2018-07-27T01:20:27.004Z,96791.88
2018-07-27T01:22:02.194Z,96791.25
2018-07-27T01:23:38.240Z,96787.97
2018-07-27T01:25:13.414Z,96786.10
2018-07-27T01:26:49.915Z,96784.56
2018-07-27T01:28:25.105Z,96788.72
2018-07-27T01:30:05.042Z,96787.53
2018-07-27T01:31:40.185Z,96788.75
2018-07-27T01:33:15.320Z,96785.53
2018-07-27T01:34:52.637Z,96784.39
2018-07-27T01:36:28.861Z,96782.36
2018-07-27T01:38:03.975Z,96776.41
2018-07-27T01:39:39.374Z,96773.52
2018-07-27T01:41:22.140Z,96770.50
2018-07-27T01:42:57.784Z,96771.56
2018-07-27T01:44:39.738Z,96769.09
2018-07-27T01:46:15.874Z,96767.00
2018-07-27T01:47:52.155Z,96767.38
2018-07-27T01:49:34.048Z,96764.41
2018-07-27T01:51:10.261Z,96771.73
2018-07-27T01:52:52.574Z,96766.86
2018-07-27T01:54:28.578Z,96764.53
2018-07-27T01:56:04.297Z,96765.80
2018-07-27T01:57:41.220Z,96763.88
2018-07-27T01:59:18.238Z,96760.91
2018-07-27T02:00:53.405Z,96761.33
2018-07-27T02:02:28.532Z,96761.60
2018-07-27T02:04:03.866Z,96764.90
2018-07-27T02:05:40.430Z,96756.07
2018-07-27T02:07:16.114Z,96756.80
2018-07-27T02:08:53.217Z,96761.80
2018-07-27T02:10:28.343Z,96756.88
2018-07-27T02:12:04.417Z,96758.52
2018-07-27T02:13:41.382Z,96756.09
2018-07-27T02:15:16.812Z,96754.34
2018-07-27T02:16:52.097Z,96758.27
2018-07-27T02:18:28.432Z,96751.80
2018-07-27T02:20:05.589Z,96750.29
2018-07-27T02:21:42.301Z,96747.60
2018-07-27T02:23:19.658Z,96752.83
2018-07-27T02:24:54.864Z,96754.46
2018-07-27T02:26:30.474Z,96745.17
2018-07-27T02:28:07.509Z,96749.98
2018-07-27T02:29:44.716Z,96747.83
2018-07-27T02:31:21.296Z,96742.03
2018-07-27T02:32:58.581Z,96741.55
2018-07-27T02:34:35.317Z,96739.78
2018-07-27T02:36:10.536Z,96739.84
2018-07-27T02:37:47.469Z,96741.86
2018-07-27T02:39:22.775Z,96738.57
2018-07-27T02:40:57.940Z,96739.45
2018-07-27T02:42:33.472Z,96743.25
2018-07-27T02:44:09.029Z,96743.56
2018-07-27T02:45:44.697Z,96744.40
2018-07-27T02:47:19.882Z,96738.45
2018-07-27T02:48:55.147Z,96736.30
2018-07-27T02:50:30.573Z,96739.20
2018-07-27T02:52:05.733Z,96733.77
2018-07-27T02:53:42.616Z,96740.35
2018-07-27T02:55:17.941Z,96735.05
2018-07-27T02:56:53.190Z,96732.33
2018-07-27T02:58:28.918Z,96734.73
2018-07-27T03:00:07.468Z,96739.56
2018-07-27T03:01:44.035Z,96735.93
2018-07-27T03:03:19.952Z,96734.05
2018-07-27T03:04:56.741Z,96735.70
2018-07-27T03:06:39.461Z,96736.34
2018-07-27T03:08:15.370Z,96737.46
2018-07-27T03:09:50.841Z,96738.08
2018-07-27T03:11:26.993Z,96734.63
2018-07-27T03:13:02.406Z,96727.03
2018-07-27T03:14:37.737Z,96730.94
2018-07-27T03:16:12.977Z,96733.33
2018-07-27T03:17:48.191Z,96729.97
2018-07-27T03:19:24.168Z,96730.81
2018-07-27T03:20:59.595Z,96731.45
2018-07-27T03:22:34.713Z,96732.08
2018-07-27T03:24:10.125Z,96727.19
2018-07-27T03:25:45.277Z,96726.25
2018-07-27T03:27:20.551Z,96726.52
2018-07-27T03:28:57.184Z,96729.00
2018-07-27T03:30:32.996Z,96728.77
2018-07-27T03:32:08.246Z,96729.64
2018-07-27T03:33:44.282Z,96729.66
2018-07-27T03:35:22.406Z,96731.57
2018-07-27T03:37:01.115Z,96725.11
2018-07-27T03:38:42.547Z,96728.83
2018-07-27T03:40:18.156Z,96732.61
2018-07-27T03:41:54.426Z,96727.61
2018-07-27T03:43:33.787Z,96730.27
2018-07-27T03:45:09.527Z,96734.08
2018-07-27T03:46:44.709Z,96730.18
2018-07-27T03:48:19.860Z,96732.69
2018-07-27T03:49:55.627Z,96730.48
2018-07-27T03:51:35.499Z,96728.35
2018-07-27T03:53:11.334Z,96724.45
2018-07-27T03:54:46.539Z,96733.33
2018-07-27T03:56:21.581Z,96734.79
2018-07-27T03:57:56.782Z,96734.17
2018-07-27T03:59:33.111Z,96729.06
2018-07-27T04:01:08.317Z,96730.45
2018-07-27T04:02:43.944Z,96738.54
2018-07-27T04:04:19.139Z,96740.80
2018-07-27T04:05:54.369Z,96735.38
2018-07-27T04:07:29.974Z,96731.96
2018-07-27T04:09:07.459Z,96728.06
2018-07-27T04:10:43.191Z,96734.76
2018-07-27T04:12:18.638Z,96728.94
2018-07-27T04:13:53.840Z,96738.80
2018-07-27T04:15:29.058Z,96738.54
2018-07-27T04:17:05.149Z,96736.00
2018-07-27T04:18:40.310Z,96731.72
2018-07-27T04:20:15.582Z,96734.98
2018-07-27T04:21:51.693Z,96733.89
2018-07-27T04:23:26.817Z,96731.40
2018-07-27T04:25:02.072Z,96732.16
2018-07-27T04:26:37.389Z,96731.94
2018-07-27T04:28:12.722Z,96726.38
2018-07-27T04:29:48.328Z,96728.78
2018-07-27T04:31:23.508Z,96731.05
2018-07-27T04:32:58.712Z,96732.81
2018-07-27T04:34:33.945Z,96726.22
2018-07-27T04:36:09.426Z,96730.00
2018-07-27T04:37:45.853Z,96724.50
2018-07-27T04:39:22.707Z,96729.83
2018-07-27T04:40:57.842Z,96723.51
2018-07-27T04:42:33.842Z,96724.09
2018-07-27T04:44:10.737Z,96725.72
2018-07-27T04:45:45.829Z,96722.69
2018-07-27T04:47:21.227Z,96725.88
2018-07-27T04:48:56.303Z,96730.14
2018-07-27T04:50:31.426Z,96727.92
2018-07-27T04:52:08.174Z,96727.70
2018-07-27T04:53:44.149Z,96733.58
2018-07-27T04:55:20.058Z,96723.31
2018-07-27T04:56:56.400Z,96725.02
2018-07-27T04:58:31.452Z,96723.45
2018-07-27T05:00:08.683Z,96728.18
2018-07-27T05:01:45.434Z,96724.30
2018-07-27T05:03:21.149Z,96731.06
2018-07-27T05:05:02.489Z,96729.52
2018-07-27T05:06:38.160Z,96730.36
2018-07-27T05:08:15.973Z,96728.27
2018-07-27T05:09:52.592Z,96726.23
2018-07-27T05:11:29.668Z,96732.91
2018-07-27T05:13:04.903Z,96730.17
2018-07-27T05:14:41.006Z,96727.51
2018-07-27T05:16:16.162Z,96723.56
2018-07-27T05:17:52.963Z,96728.73
2018-07-27T05:19:29.473Z,96727.91
2018-07-27T05:21:06.677Z,96725.23
2018-07-27T05:22:43.985Z,96726.86
2018-07-27T05:24:19.425Z,96732.25
2018-07-27T05:25:55.092Z,96721.59
2018-07-27T05:27:30.314Z,96729.77
2018-07-27T05:29:05.504Z,96723.79
2018-07-27T05:30:44.919Z,96727.00
2018-07-27T05:32:20.172Z,96731.20
2018-07-27T05:33:55.299Z,96728.86
2018-07-27T05:35:31.594Z,96724.23
2018-07-27T05:37:07.546Z,96722.56
2018-07-27T05:38:42.838Z,96724.46
2018-07-27T05:40:18.020Z,96726.97
2018-07-27T05:41:56.363Z,96727.22
2018-07-27T05:43:31.525Z,96724.67
2018-07-27T05:45:08.940Z,96720.16
2018-07-27T05:46:44.064Z,96728.46
2018-07-27T05:48:19.187Z,96727.72
2018-07-27T05:49:58.612Z,96721.33
2018-07-27T05:51:36.851Z,96725.42
2018-07-27T05:53:12.038Z,96729.06
2018-07-27T05:54:47.282Z,96724.06
2018-07-27T05:56:22.432Z,96729.11
2018-07-27T05:58:00.019Z,96729.07
2018-07-27T05:59:36.269Z,96720.59
2018-07-27T06:01:11.892Z,96723.37
2018-07-27T06:02:47.207Z,96722.83
2018-07-27T06:04:22.436Z,96726.29
2018-07-27T06:05:58.324Z,96729.22
2018-07-27T06:07:39.281Z,96726.87
2018-07-27T06:09:15.429Z,96726.05
2018-07-27T06:10:50.613Z,96727.38
2018-07-27T06:12:30.157Z,96722.22
2018-07-27T06:14:08.003Z,96718.93
2018-07-27T06:15:44.568Z,96719.06
2018-07-27T06:17:19.695Z,96719.91
2018-07-27T06:18:55.264Z,96718.55
2018-07-27T06:20:31.244Z,96711.32
2018-07-27T06:22:11.917Z,96712.84
2018-07-27T06:23:47.431Z,96718.24
2018-07-27T06:25:23.263Z,96713.25
2018-07-27T06:27:00.310Z,96709.08
2018-07-27T06:28:37.102Z,96721.30
2018-07-27T06:30:15.221Z,96717.84
2018-07-27T06:31:55.653Z,96722.08
2018-07-27T06:33:31.192Z,96726.18
2018-07-27T06:35:09.391Z,96727.50
2018-07-27T06:36:47.121Z,96723.41
2018-07-27T06:38:26.364Z,96726.98
2018-07-27T06:40:06.981Z,96731.37
2018-07-27T06:41:52.951Z,96725.67
2018-07-27T06:43:30.178Z,96730.34
2018-07-27T06:45:09.907Z,96730.25
2018-07-27T06:46:46.085Z,96726.14
2018-07-27T06:48:25.506Z,96733.68
2018-07-27T06:52:03.085Z,96735.30
2018-07-27T06:53:38.609Z,96733.23
2018-07-27T06:55:16.458Z,96730.48
2018-07-27T06:56:51.786Z,96728.83
2018-07-27T06:58:34.298Z,96732.56
2018-07-27T07:00:11.194Z,96731.49
2018-07-27T07:01:48.615Z,96739.88
2018-07-27T07:03:25.896Z,96740.08
2018-07-27T07:05:01.293Z,96741.30
2018-07-27T07:06:38.303Z,96747.84
2018-07-27T07:08:14.670Z,96745.90
2018-07-27T07:09:51.516Z,96745.66
2018-07-27T07:11:27.017Z,96738.47
2018-07-27T07:13:02.746Z,96740.72
2018-07-27T07:14:39.773Z,96742.91
2018-07-27T07:16:16.793Z,96743.79
2018-07-27T07:17:52.355Z,96738.34
2018-07-27T07:19:33.532Z,96737.36
2018-07-27T07:21:10.515Z,96735.62
2018-07-27T07:22:47.316Z,96733.23
2018-07-27T07:24:22.661Z,96734.24
2018-07-27T07:25:59.105Z,96735.31
2018-07-27T07:27:34.319Z,96736.56
2018-07-27T07:29:09.689Z,96741.77
2018-07-27T07:30:45.170Z,96742.66
2018-07-27T07:32:22.253Z,96741.32
2018-07-27T07:33:57.710Z,96734.24
2018-07-27T07:35:35.178Z,96736.56
2018-07-27T07:37:13.258Z,96734.73
2018-07-27T07:38:51.607Z,96735.92
2018-07-27T07:40:27.558Z,96732.99
2018-07-27T07:42:03.546Z,96728.00
2018-07-27T07:43:45.805Z,96726.89
2018-07-27T07:45:23.614Z,96723.05
2018-07-27T07:47:02.406Z,96722.30
2018-07-27T07:48:38.921Z,96723.13
2018-07-27T07:50:17.234Z,96721.52
2018-07-27T07:51:57.721Z,96726.16
2018-07-27T07:53:33.480Z,96721.02
2018-07-27T07:55:09.029Z,96722.05
2018-07-27T07:56:44.307Z,96720.17
2018-07-27T07:58:22.799Z,96721.52
2018-07-27T08:00:05.912Z,96722.41
2018-07-27T08:01:45.663Z,96721.50
2018-07-27T08:03:21.257Z,96724.93
2018-07-27T08:04:58.370Z,96715.80
2018-07-27T08:06:33.989Z,96721.33
2018-07-27T08:08:10.960Z,96713.53
2018-07-27T08:09:51.785Z,96716.15
2018-07-27T08:11:29.037Z,96712.37
2018-07-27T08:13:29.514Z,96708.04
2018-07-27T08:15:13.680Z,96715.28
2018-07-27T08:16:59.410Z,96706.96
2018-07-27T08:18:35.767Z,96708.24
2018-07-27T08:20:19.220Z,96708.87
2018-07-27T08:22:01.189Z,96704.58
2018-07-27T08:23:48.447Z,96703.83
2018-07-27T08:27:24.278Z,96702.25
2018-07-27T08:29:20.051Z,96700.09
2018-07-27T08:31:05.628Z,96704.95
2018-07-27T08:32:44.622Z,96702.33
2018-07-27T08:34:26.818Z,96697.64
2018-07-27T08:36:08.096Z,96696.19
2018-07-27T08:37:48.025Z,96692.59
2018-07-27T08:39:26.452Z,96694.44
2018-07-27T08:41:04.762Z,96694.75
2018-07-27T08:42:42.723Z,96691.00
2018-07-27T08:44:22.838Z,96698.09
2018-07-27T08:46:05.543Z,96688.75
2018-07-27T08:47:44.489Z,96694.06
2018-07-27T08:49:21.283Z,96685.26
2018-07-27T08:50:58.746Z,96681.09
2018-07-27T08:52:39.265Z,96679.28
2018-07-27T08:54:19.510Z,96671.25
2018-07-27T08:56:00.587Z,96672.55
2018-07-27T08:57:40.867Z,96672.28
2018-07-27T08:59:19.597Z,96667.77
2018-07-27T09:01:00.806Z,96664.98
2018-07-27T09:02:44.347Z,96671.98
2018-07-27T09:04:22.448Z,96671.69
2018-07-27T09:05:59.070Z,96656.42
2018-07-27T09:07:35.908Z,96657.21
2018-07-27T09:09:17.861Z,96657.29
2018-07-27T09:10:57.669Z,96661.11
2018-07-27T09:12:34.823Z,96656.20
2018-07-27T09:14:10.510Z,96656.20
2018-07-27T09:16:07.357Z,96663.02
2018-07-27T09:17:47.794Z,96660.48
2018-07-27T09:19:23.473Z,96655.92
2018-07-27T09:21:04.679Z,96649.73
2018-07-27T09:23:06.276Z,96648.80
2018-07-27T09:24:56.046Z,96655.42
2018-07-27T09:26:51.782Z,96649.02
2018-07-27T09:28:45.367Z,96650.44
2018-07-27T09:30:41.462Z,96649.45
2018-07-27T09:32:27.776Z,96645.89
2018-07-27T09:36:19.561Z,96646.42
2018-07-27T09:37:57.574Z,96644.55
2018-07-27T09:39:36.197Z,96639.05
2018-07-27T09:41:20.731Z,96650.10
2018-07-27T09:43:00.641Z,96644.72
2018-07-27T09:45:06.327Z,96642.25
2018-07-27T09:47:03.116Z,96638.36
2018-07-27T09:50:57.120Z,96636.52
2018-07-27T09:52:40.761Z,96637.70
2018-07-27T09:54:28.358Z,96634.92
2018-07-27T09:56:23.780Z,96633.20
2018-07-27T09:58:00.916Z,96635.25
2018-07-27T09:59:50.580Z,96642.19
2018-07-27T10:01:44.429Z,96631.98
2018-07-27T10:03:27.415Z,96637.47
2018-07-27T10:05:12.494Z,96633.53
2018-07-27T10:06:51.241Z,96632.02
2018-07-27T10:08:44.553Z,96624.25
2018-07-27T10:10:44.504Z,96626.59
2018-07-27T10:12:30.720Z,96633.59
2018-07-27T10:14:17.045Z,96631.99
2018-07-27T10:15:56.498Z,96634.53
2018-07-27T10:17:36.937Z,96628.10
2018-07-27T10:19:17.149Z,96627.72
2018-07-27T10:20:55.393Z,96628.98
2018-07-27T10:22:43.295Z,96622.04
2018-07-27T10:24:32.093Z,96623.54
2018-07-27T10:26:22.075Z,96613.66
2018-07-27T10:28:17.161Z,96619.14
2018-07-27T10:29:53.704Z,96609.97
2018-07-27T10:31:36.363Z,96611.32
2018-07-27T10:33:18.258Z,96625.52
2018-07-27T10:35:16.796Z,96623.48
2018-07-27T10:37:05.122Z,96619.44
2018-07-27T10:38:54.972Z,96614.11
2018-07-27T10:40:43.824Z,96621.90
2018-07-27T10:42:27.850Z,96608.91
2018-07-27T10:44:14.380Z,96607.30
2018-07-27T10:45:53.262Z,96602.30
2018-07-27T10:49:40.779Z,96598.08
2018-07-27T10:53:10.750Z,96597.77
2018-07-27T10:54:51.388Z,96583.58
2018-07-27T10:56:45.477Z,96594.97
2018-07-27T10:58:22.061Z,96597.03
2018-07-27T10:59:58.264Z,96587.55
2018-07-27T11:01:39.983Z,96587.02
2018-07-27T11:03:15.434Z,96586.44
2018-07-27T11:06:54.809Z,96585.93
2018-07-27T11:08:40.315Z,96579.41
2018-07-27T11:10:22.959Z,96580.21
2018-07-27T11:12:29.799Z,96572.45
2018-07-27T11:14:09.012Z,96572.05
2018-07-27T11:15:44.849Z,96568.92
2018-07-27T11:17:21.267Z,96566.94
2018-07-27T11:18:59.355Z,96572.10
2018-07-27T11:20:43.204Z,96569.69
2018-07-27T11:22:26.796Z,96565.52
2018-07-27T11:24:05.524Z,96557.22
2018-07-27T11:25:44.114Z,96563.91
2018-07-27T11:31:19.672Z,96564.13
2018-07-27T11:32:58.744Z,96552.77
2018-07-27T11:34:35.540Z,96550.19
2018-07-27T11:36:15.316Z,96547.13
2018-07-27T11:37:54.249Z,96550.48
2018-07-27T11:39:36.972Z,96539.59
2018-07-27T11:41:15.087Z,96539.78
2018-07-27T11:42:53.130Z,96535.77
2018-07-27T11:46:31.302Z,96545.66
2018-07-27T11:48:19.617Z,96548.66
2018-07-27T11:50:10.647Z,96542.44
2018-07-27T11:53:56.826Z,96543.40
2018-07-27T11:55:47.400Z,96543.28
2018-07-27T11:57:31.274Z,96542.72
2018-07-27T11:59:08.449Z,96535.00
2018-07-27T12:00:54.107Z,96540.54
2018-07-27T12:02:39.354Z,96532.22
2018-07-27T12:04:28.196Z,96537.41
2018-07-27T12:06:08.408Z,96539.18
2018-07-27T12:07:54.175Z,96532.86
2018-07-27T12:09:32.293Z,96526.39
2018-07-27T12:11:15.016Z,96520.62
2018-07-27T12:12:52.713Z,96525.20
2018-07-27T12:14:31.221Z,96521.28
2018-07-27T12:16:09.169Z,96518.95
2018-07-27T12:17:47.628Z,96514.73
2018-07-27T12:19:30.292Z,96513.52
2018-07-27T12:21:15.040Z,96512.34
2018-07-27T12:22:51.844Z,96513.34
2018-07-27T12:24:27.941Z,96517.87
2018-07-27T12:26:04.176Z,96514.12
2018-07-27T12:27:41.291Z,96512.68
2018-07-27T12:29:18.604Z,96511.16
2018-07-27T12:30:55.189Z,96513.64
2018-07-27T12:32:34.258Z,96505.83
2018-07-27T12:34:10.089Z,96501.30
2018-07-27T12:35:45.924Z,96509.73
2018-07-27T12:37:23.746Z,96500.92
2018-07-27T12:38:59.524Z,96505.81
2018-07-27T12:40:35.416Z,96493.94
2018-07-27T12:42:11.453Z,96495.84
2018-07-27T12:44:00.018Z,96498.08
2018-07-27T12:45:35.504Z,96489.03
2018-07-27T12:47:18.202Z,96493.58
2018-07-27T12:48:54.137Z,96490.78
2018-07-27T12:50:31.130Z,96490.05
2018-07-27T12:52:06.793Z,96486.84
2018-07-27T12:53:46.120Z,96487.03
2018-07-27T12:55:26.187Z,96480.20
2018-07-27T12:57:03.533Z,96480.09
2018-07-27T12:58:40.463Z,96476.95
2018-07-27T13:00:24.206Z,96470.29
2018-07-27T13:02:05.234Z,96473.05
2018-07-27T13:03:56.143Z,96474.28
2018-07-27T13:05:41.207Z,96467.98
2018-07-27T13:07:24.398Z,96461.60
2018-07-27T13:09:01.626Z,96465.54
2018-07-27T13:10:45.764Z,96467.01
2018-07-27T13:12:21.594Z,96461.01
2018-07-27T13:13:59.276Z,96456.06
2018-07-27T13:15:36.221Z,96455.59
2018-07-27T13:17:13.371Z,96454.44
2018-07-27T13:18:49.333Z,96453.80
2018-07-27T13:20:25.529Z,96446.52
2018-07-27T13:22:02.612Z,96451.31
2018-07-27T13:23:38.020Z,96444.13
2018-07-27T13:25:15.011Z,96441.81
2018-07-27T13:26:50.262Z,96438.77
2018-07-27T13:28:26.494Z,96432.88
2018-07-27T13:30:03.487Z,96431.08
2018-07-27T13:31:50.284Z,96433.63
2018-07-27T13:33:26.091Z,96431.73
2018-07-27T13:35:05.125Z,96432.39
2018-07-27T13:36:41.919Z,96431.13
2018-07-27T13:38:18.177Z,96429.62
2018-07-27T13:39:56.255Z,96423.23
2018-07-27T13:41:45.618Z,96423.11
2018-07-27T13:43:22.310Z,96422.64
2018-07-27T13:44:57.819Z,96409.53
2018-07-27T13:46:33.432Z,96409.00
2018-07-27T13:48:11.276Z,96415.78
2018-07-27T13:49:46.986Z,96407.55
2018-07-27T13:51:24.088Z,96411.25
2018-07-27T13:52:59.428Z,96403.02
2018-07-27T13:54:37.065Z,96402.88
2018-07-27T13:56:13.204Z,96403.34
2018-07-27T13:57:48.637Z,96405.20
2018-07-27T13:59:25.321Z,96394.69
2018-07-27T14:01:03.833Z,96384.21
2018-07-27T14:02:43.524Z,96394.41
2018-07-27T14:04:20.119Z,96401.06
2018-07-27T14:06:00.728Z,96392.08
2018-07-27T14:07:37.191Z,96392.52
2018-07-27T14:09:16.692Z,96385.86
2018-07-27T14:10:57.247Z,96386.16
2018-07-27T14:12:34.281Z,96385.47
2018-07-27T14:14:10.500Z,96387.81
2018-07-27T14:15:53.685Z,96385.23
2018-07-27T14:17:33.859Z,96383.03
2018-07-27T14:19:11.140Z,96374.73
2018-07-27T14:20:55.434Z,96378.84
2018-07-27T14:22:33.925Z,96379.23
2018-07-27T14:24:40.743Z,96367.84
2018-07-27T14:26:26.035Z,96375.63
2018-07-27T14:28:04.704Z,96376.11
2018-07-27T14:30:17.525Z,96382.56
2018-07-27T14:31:59.275Z,96378.77
2018-07-27T14:35:27.166Z,96377.81
2018-07-27T14:37:03.329Z,96375.91
2018-07-27T14:38:39.815Z,96368.88
2018-07-27T14:40:22.783Z,96367.51
2018-07-27T14:41:59.358Z,96362.23
2018-07-27T14:43:59.240Z,96368.25
2018-07-27T14:46:05.353Z,96366.89
2018-07-27T14:47:50.786Z,96359.19
2018-07-27T14:49:32.843Z,96365.20
2018-07-27T14:51:21.178Z,96370.43
2018-07-27T14:53:23.630Z,96366.34
2018-07-27T14:55:03.649Z,96361.58
2018-07-27T14:56:58.619Z,96361.14
2018-07-27T14:58:38.349Z,96362.99
2018-07-27T15:00:25.295Z,96357.41
2018-07-27T15:02:40.201Z,96356.61
2018-07-27T15:04:38.906Z,96350.55
2018-07-27T15:06:41.286Z,96351.91
2018-07-27T15:08:25.953Z,96353.20
2018-07-27T15:10:19.342Z,96353.44
2018-07-27T15:12:10.606Z,96347.37
2018-07-27T15:13:46.628Z,96346.33
2018-07-27T15:15:26.122Z,96345.69
2018-07-27T15:20:01.817Z,96342.79
2018-07-27T15:21:54.268Z,96333.76
2018-07-27T15:23:31.333Z,96340.50
2018-07-27T15:25:08.319Z,96341.30
2018-07-27T15:26:44.104Z,96339.70
2018-07-27T15:28:22.105Z,96335.06
2018-07-27T15:30:25.254Z,96327.87
2018-07-27T15:32:25.169Z,96333.96
2018-07-27T15:34:35.413Z,96336.80
2018-07-27T15:39:08.770Z,96330.38
2018-07-27T15:41:10.461Z,96331.98
2018-07-27T15:43:15.364Z,96328.94
2018-07-27T15:45:07.750Z,96325.59
2018-07-27T15:46:47.972Z,96318.91
2018-07-27T15:48:25.331Z,96321.25
2018-07-27T15:50:05.697Z,96318.68
2018-07-27T15:51:53.982Z,96318.39
2018-07-27T15:53:55.634Z,96311.16
2018-07-27T15:55:33.135Z,96311.28
2018-07-27T15:57:25.336Z,96308.56
2018-07-27T15:59:10.789Z,96306.20
2018-07-27T16:03:28.410Z,96295.62
2018-07-27T16:05:15.656Z,96294.59
2018-07-27T16:07:22.049Z,96295.31
2018-07-27T16:17:29.200Z,96288.59
2018-07-27T16:19:08.297Z,96289.28
2018-07-27T16:20:48.822Z,96284.33
2018-07-27T16:22:31.713Z,96281.79
2018-07-27T16:24:16.932Z,96279.89
2018-07-27T16:25:58.040Z,96278.27
2018-07-27T16:27:42.053Z,96281.22
2018-07-27T16:29:22.944Z,96275.91
2018-07-27T16:31:00.619Z,96272.38
2018-07-27T16:32:43.193Z,96284.55
2018-07-27T16:34:47.013Z,96272.58
2018-07-27T16:38:41.737Z,96269.41
2018-07-27T16:40:28.647Z,96273.31
2018-07-27T16:42:58.455Z,96269.22
2018-07-27T16:45:00.971Z,96266.57
2018-07-27T16:46:53.090Z,96268.98
2018-07-27T16:48:38.667Z,96273.16
2018-07-27T16:50:19.631Z,96268.97
2018-07-27T16:51:56.205Z,96275.22
2018-07-27T16:53:33.768Z,96270.84
2018-07-27T16:55:12.996Z,96270.66
2018-07-27T16:56:48.361Z,96266.81
2018-07-27T16:58:27.721Z,96265.27
2018-07-27T17:00:07.299Z,96270.27
2018-07-27T17:01:51.835Z,96270.78
2018-07-27T17:03:43.619Z,96271.89
2018-07-27T17:07:38.637Z,96271.11
2018-07-27T17:09:23.173Z,96267.02
2018-07-27T17:11:03.313Z,96265.38
2018-07-27T17:12:40.993Z,96267.56
2018-07-27T17:14:40.680Z,96269.75
2018-07-27T17:18:37.293Z,96272.39
2018-07-27T17:20:30.034Z,96271.65
2018-07-27T17:25:03.330Z,96274.37
2018-07-27T17:27:22.012Z,96271.86
2018-07-27T17:29:09.482Z,96270.05
2018-07-27T17:30:51.808Z,96270.08
2018-07-27T17:32:34.826Z,96271.05
2018-07-27T17:34:20.627Z,96274.51
2018-07-27T17:36:03.335Z,96272.08
2018-07-27T17:37:56.233Z,96265.41
2018-07-27T17:39:45.344Z,96268.23
2018-07-27T17:41:54.007Z,96265.53
2018-07-27T17:43:55.751Z,96263.82
2018-07-27T17:45:34.048Z,96264.88
2018-07-27T17:47:42.630Z,96264.33
2018-07-27T17:49:23.006Z,96270.98
2018-07-27T17:51:06.149Z,96264.55
2018-07-27T17:55:12.601Z,96266.42
2018-07-27T17:59:22.596Z,96265.45
2018-07-27T18:00:57.784Z,96269.13
2018-07-27T18:02:38.651Z,96263.63
2018-07-27T18:04:29.280Z,96266.33
2018-07-27T18:06:57.187Z,96262.18
2018-07-27T18:08:39.273Z,96264.81
2018-07-27T18:10:15.727Z,96265.08
2018-07-27T18:11:53.520Z,96257.41
2018-07-27T18:14:16.303Z,96261.75
2018-07-27T18:15:57.539Z,96256.35
2018-07-27T18:17:44.937Z,96262.73
2018-07-27T18:23:31.373Z,96261.27
2018-07-27T18:25:14.374Z,96260.41
2018-07-27T18:26:57.026Z,96259.37
2018-07-27T18:28:35.717Z,96255.70
2018-07-27T18:30:18.403Z,96257.61
2018-07-27T18:31:55.239Z,96258.36
2018-07-27T18:33:40.424Z,96255.84
2018-07-27T18:35:22.258Z,96252.52
2018-07-27T18:37:07.776Z,96254.18
2018-07-27T18:38:49.710Z,96253.82
2018-07-27T18:42:36.046Z,96254.38
2018-07-27T18:44:17.440Z,96255.21
2018-07-27T18:45:57.494Z,96254.47
2018-07-27T18:47:38.693Z,96252.75
2018-07-27T18:49:15.683Z,96254.52
2018-07-27T18:50:51.354Z,96253.92
2018-07-27T18:52:29.436Z,96248.83
2018-07-27T18:54:07.118Z,96248.19
2018-07-27T18:55:45.713Z,96249.25
2018-07-27T18:57:27.705Z,96248.62
2018-07-27T18:59:08.173Z,96254.95
2018-07-27T19:00:46.797Z,96259.75
2018-07-27T19:02:23.283Z,96255.66
2018-07-27T19:04:02.276Z,96255.56
2018-07-27T19:05:43.423Z,96257.59
2018-07-27T19:07:18.703Z,96255.78
2018-07-27T19:09:01.784Z,96252.13
2018-07-27T19:10:40.704Z,96253.08
2018-07-27T19:12:24.160Z,96258.53
2018-07-27T19:14:08.892Z,96253.95
2018-07-27T19:15:50.867Z,96255.75
2018-07-27T19:17:47.206Z,96261.17
2018-07-27T19:19:30.280Z,96265.48
2018-07-27T19:23:22.293Z,96265.77
2018-07-27T19:25:01.463Z,96270.02
2018-07-27T19:26:40.283Z,96266.33
2018-07-27T19:28:18.397Z,96265.30
2018-07-27T19:29:56.752Z,96265.25
2018-07-27T19:31:38.168Z,96263.02
2018-07-27T19:33:14.193Z,96268.45
2018-07-27T19:34:50.217Z,96267.17
2018-07-27T19:36:26.176Z,96266.92
2018-07-27T19:38:03.713Z,96267.67
2018-07-27T19:39:43.386Z,96275.37
2018-07-27T19:41:20.749Z,96263.21
2018-07-27T19:42:56.811Z,96272.37
2018-07-27T19:44:35.056Z,96268.55
2018-07-27T19:46:11.534Z,96268.86
2018-07-27T19:47:47.273Z,96272.67
2018-07-27T19:49:23.153Z,96268.00
2018-07-27T19:51:00.404Z,96277.06
2018-07-27T19:52:36.782Z,96275.84
2018-07-27T19:54:11.966Z,96273.04
2018-07-27T19:55:50.043Z,96272.73
2018-07-27T19:57:28.803Z,96268.73
2018-07-27T19:59:05.328Z,96271.98
2018-07-27T20:00:41.837Z,96272.46
2018-07-27T20:02:18.307Z,96272.53
2018-07-27T20:03:57.892Z,96272.44
2018-07-27T20:05:33.334Z,96269.64
2018-07-27T20:07:09.701Z,96269.74
2018-07-27T20:08:46.983Z,96266.63
2018-07-27T20:10:23.652Z,96263.47
2018-07-27T20:12:02.832Z,96270.06
2018-07-27T20:13:44.283Z,96269.22
2018-07-27T20:15:19.895Z,96270.06
2018-07-27T20:16:55.923Z,96274.53
2018-07-27T20:18:32.312Z,96275.57
2018-07-27T20:20:11.112Z,96276.77
2018-07-27T20:21:51.513Z,96276.27
2018-07-27T20:23:28.804Z,96279.16
2018-07-27T20:25:06.302Z,96282.61
2018-07-27T20:26:43.049Z,96273.92
2018-07-27T20:28:27.054Z,96274.08
2018-07-27T20:30:06.414Z,96273.28
2018-07-27T20:31:42.672Z,96277.42
2018-07-27T20:33:20.670Z,96274.42
2018-07-27T20:35:03.437Z,96274.33
2018-07-27T20:36:46.018Z,96276.76
2018-07-27T20:38:28.346Z,96273.17
2018-07-27T20:40:07.075Z,96272.30
2018-07-27T20:42:01.881Z,96278.12